Sugar Bowl, California Weather observations

Data are for observation ending at time listed.
 Day   Time    Ave.   Ave.  Ave.  Vector   Max.   Stn.    Total    Solar   Ave.   Snow 
  of    of     Air    Rel.  Wind   Wind    Wind   Baro.  Precip.   Rad.    Soil   Depth
Year   Day     Temp.  Hum.  Speed  Dir.    Gust   Pres.                    Temp.       
2016   (PST)    F      %     mph   deg.    mph     mb.     in.     W/m2     F      in. 
---------------------------------------------------------------------------------------  
 122    4:50   37.8    65   12.6    88     36.2   785.0    0.00       0    999.0   28.9
 122    5:00   37.5    66   12.9    90     33.0   785.0    0.00       2    999.0   29.1
 122    5:10   37.2    67   11.3    86     27.5   785.0    0.00       4    999.0   29.1
 122    5:20   37.2    68   11.1    90     27.8   785.1    0.00       7    999.0   28.9
 122    5:30   37.1    68   12.0    86     27.9   785.1    0.00      10    999.0   29.0
 122    5:40   37.8    67   14.2    86     37.7   785.1    0.00      13    999.0   29.0
 122    5:50   37.9    67   12.7    91     32.4   785.1    0.00      79    999.0   29.0
 122    6:00   38.1    66   13.8    92     32.5   785.1    0.00     155    999.0   28.8
 122    6:10   38.4    66   13.7    88     41.7   785.2    0.00     190    999.0   29.1
 122    6:20   38.4    66   12.9    89     36.7   785.3    0.00     225    999.0   29.0
 122    6:30   38.6    66   12.8    87     35.9   785.3    0.00     263    999.0   29.0
 122    6:40   38.8    66   10.0    83     25.9   785.3    0.00     301    999.0   29.0
 122    6:50   38.9    65   12.8    88     28.9   785.4    0.00     339    999.0   29.0
 122    7:00   39.1    65   10.0    86     22.6   785.4    0.00     377    999.0   29.0
 122    7:10   39.4    65   11.4    91     27.0   785.5    0.00     414    999.0   28.8
 122    7:20   39.7    64    9.0    85     26.6   785.5    0.00     452    999.0   28.9
 122    7:30   39.9    64   10.4    87     29.4   785.6    0.00     489    999.0   28.1
 122    7:40   40.3    63    9.8    89     32.4   785.6    0.00     526    999.0   28.1
 122    7:50   40.5    62   12.1    92     34.8   785.6    0.00     391    999.0   28.1
 122    8:00   40.9    61   12.9    93     37.8   785.6    0.00     232    999.0   27.2
 122    8:10   41.1    61   12.6    90     42.4   785.6    0.00     107    999.0   27.8
 122    8:20   41.7    61    7.5    75     20.0   785.6    0.00      71    999.0   27.8
 122    8:30   42.3    60    6.8    80     25.9   785.7    0.00      61    999.0   27.7
 122    8:40   42.4    60    6.7    78     24.0   785.7    0.00      70    999.0   27.9
 122    8:50   42.5    60    5.8    82     17.3   785.8    0.00      74    999.0   27.8
 122    9:00   42.6    59    6.7    81     19.9   785.8    0.00      86    999.0   27.6
 122    9:10   42.7    59    8.6    90     27.9   785.8    0.00      99    999.0   27.8
 122    9:20   42.8    60    5.4    72     21.5   785.8    0.00     114    999.0   27.5
 122    9:30   42.7    58    7.8    88     22.6   785.9    0.00     114    999.0   27.4
 122    9:40   42.2    58   10.0    88     31.9   785.9    0.00     121    999.0   27.3
 122    9:50   42.9    56    9.1    88     32.6   786.0    0.00     112    999.0   28.0
 122   10:00   42.9    52   13.8    92     38.8   786.0    0.00      86    999.0   27.9
 122   10:10   43.1    53   10.7    97     31.4   786.0    0.00     100    999.0   27.9
 122   10:20   43.1    51   10.3    94     25.9   786.1    0.00      75    999.0   27.8
 122   10:30   43.6    50   10.3    92     28.6   786.2    0.00      74    999.0   27.7
 122   10:40   43.5    51    8.3   103     23.2   786.2    0.00     119    999.0   28.5
 122   10:50   44.0    49    9.7    91     26.5   786.2    0.00     615    999.0   27.1
 122   11:00   44.5    47    8.2    95     27.9   786.2    0.00     771    999.0   27.2
 122   11:10   44.7    46    8.1    97     25.6   786.2    0.00    1047    999.0   27.5
 122   11:20   44.8    46    9.8    92     24.5   786.2    0.00    1050    999.0   27.3
 122   11:30   45.0    46    9.0    93     24.5   786.2    0.00     931    999.0   26.6
 122   11:40   45.3    46    6.5    92     23.4   786.2    0.00     949    999.0   26.9
 122   11:50   45.9    44    5.3    93     17.0   786.2    0.00     858    999.0   27.2
 122   12:00   46.3    44    6.6    87     23.2   786.2    0.00    1081    999.0   27.0
 122   12:10   46.7    42    5.5    94     20.1   786.1    0.00     621    999.0   26.8
 122   12:20   46.6    42    5.2    98     20.0   786.2    0.00     352    999.0   26.6
 122   12:30   46.9    40    6.2    97     21.3   786.1    0.00     344    999.0   26.6
 122   12:40   46.6    41    8.7    87     28.0   786.1    0.00     185    999.0   26.5
 122   12:50   46.9    42    5.2   100     21.6   786.2    0.00     108    999.0   27.0
 122   13:00   47.3    40    3.8   145     19.9   786.2    0.00      96    999.0   26.4
 122   13:10   47.5    39    4.4   113     15.1   786.2    0.00     110    999.0   26.5
 122   13:20   47.6    38    5.9   101     18.6   786.2    0.00      99    999.0   25.8
 122   13:30   48.2    37    3.9   127     12.4   786.1    0.00     135    999.0   25.9
 122   13:40   48.9    36    3.4   112     15.8   786.0    0.00     170    999.0   25.8
 122   13:50   49.6    36    3.2   106     12.5   786.0    0.00     165    999.0   24.9
 122   14:00   49.5    34    5.0    81     17.5   785.9    0.00     297    999.0   25.9
 122   14:10   50.1    35    2.6    72      9.5   785.8    0.00     890    999.0   25.3
 122   14:20   49.9    34    4.5    84     16.2   785.8    0.00     911    999.0   24.7
 122   14:30   50.9    32    2.6    63     10.2   785.7    0.00     825    999.0   25.2
 122   14:40   51.6    28    3.5    88     13.2   785.7    0.00     867    999.0   25.2
 122   14:50   51.1    28    2.2   145      7.1   785.7    0.00     848    999.0   25.3
 122   15:00   49.9    32    2.0   158      7.0   785.6    0.00     313    999.0   25.5
 122   15:10   51.2    32    1.5   186      4.5   785.6    0.00     820    999.0   24.7
 122   15:20   50.8    29    2.4   141      6.2   785.6    0.00     474    999.0   25.2
 122   15:30   50.6    29    2.2   174      5.6   785.6    0.00     625    999.0   25.3
 122   15:40   50.4    30    2.3   182      6.1   785.6    0.00     538    999.0   25.5
 122   15:50   50.0    30    2.7   172      9.3   785.6    0.00     278    999.0   25.8
 122   16:00   48.7    35    1.8   164      4.7   785.6    0.00     235    999.0   25.5
 122   16:10   49.3    32    1.8   152      5.2   785.7    0.00     669    999.0   25.3
 122   16:20   50.7    37    3.3   134     11.6   785.7    0.00     382    999.0   24.5
 122   16:30   48.8    46    1.9   159      9.2   785.8    0.00      93    999.0   25.1
 122   16:40   47.8    52    2.5   182     15.0   785.8    0.00      75    999.0   25.3
 122   16:50   46.5    54    3.8   193     12.3   785.8    0.00      72    999.0   25.7
 122   17:00   46.3    55    1.7   198      7.7   785.9    0.00      88    999.0   25.6
 122   17:10   45.7    58    1.3   211      2.9   785.9    0.00      87    999.0   25.5
 122   17:20   45.2    58    0.8   221      3.9   785.9    0.00      60    999.0   25.5
 122   17:30   44.9    58    1.6   202      6.7   785.9    0.00      40    999.0   25.6
 122   17:40   44.3    60    1.9   197      7.6   785.9    0.00      37    999.0   25.8
 122   17:50   43.5    59    1.4   126      6.9   786.0    0.00      50    999.0   25.7
 122   18:00   44.9    52    0.8   141      3.7   786.1    0.00      64    999.0   25.7
 122   18:10   44.5    56    1.5   197      4.6   786.2    0.00      36    999.0   25.6
 122   18:20   43.5    60    1.2   218      5.3   786.3    0.00      11    999.0   25.3
 122   18:30   43.0    63    2.2   210      5.6   786.3    0.00       6    999.0   25.3
 122   18:40   42.9    64    3.8   202     14.7   786.3    0.00       4    999.0   25.4
 122   18:50   42.1    67    1.2   268      4.7   786.4    0.00       2    999.0   25.3
 122   19:00   41.5    68    2.4   195     11.6   786.5    0.00       1    999.0   25.4
 122   19:10   41.4    67    2.7   202     11.6   786.7    0.00       1    999.0   25.6
 122   19:20   40.2    71    1.5   206      6.8   786.9    0.00       0    999.0   25.3
 122   19:30   39.5    73    0.7   188      3.7   786.9    0.00       0    999.0   25.4
 122   19:40   39.4    72    0.5   171      2.5   787.1    0.00       0    999.0   25.5
 122   19:50   39.3    74    0.8   183      3.7   787.2    0.00       0    999.0   25.2
 122   20:00   38.6    76    1.0   267      4.0   787.3    0.00       0    999.0   25.3
 122   20:10   38.5    75    1.0   158      5.8   787.5    0.00       0    999.0   25.5
 122   20:20   38.1    76    1.0    60      4.4   787.7    0.00       0    999.0   25.3
 122   20:30   37.3    78    0.3   131      2.1   787.8    0.00       0    999.0   25.3
 122   20:40   37.3    77    2.1    95      8.7   787.7    0.00       0    999.0   25.1
 122   20:50   37.7    76    1.1   250      2.6   787.7    0.00       0    999.0   25.3
 122   21:00   38.2    74    0.6   240      2.8   787.7    0.00       0    999.0   25.3
 122   21:10   37.7    74    0.2   294      2.1   787.7    0.00       0    999.0   25.3
 122   21:20   37.2    76    1.4   201      7.1   787.7    0.00       0    999.0   25.2
 122   21:30   36.8    76    0.9    55      3.1   787.6    0.00       0    999.0   25.2
 122   21:40   35.5    79    0.3    78      2.9   787.6    0.00       0    999.0   25.3
 122   21:50   35.1    80    0.2    50      1.8   787.6    0.00       0    999.0   25.1
 122   22:00   34.9    79    0.0   197      0.5   787.7    0.00       0    999.0   25.1
 122   22:10   35.0    78    0.3   174      2.0   787.7    0.00       0    999.0   24.8
 122   22:20   35.1    78    0.2   127      1.8   787.8    0.00       0    999.0   25.3
 122   22:30   34.9    78    0.4   251      2.4   787.8    0.00       0    999.0   25.2
 122   22:40   35.0    78    0.3   328      2.9   787.9    0.00       0    999.0   25.1
 122   22:50   34.8    79    0.2   141      1.6   787.9    0.00       0    999.0   25.2
 122   23:00   34.3    80    0.1    80      1.9   787.9    0.00       0    999.0   25.2
 122   23:10   33.8    82    0.0   160      0.8   787.9    0.00       0    999.0   25.2
 122   23:20   33.8    82    0.4   138      2.4   787.9    0.00       0    999.0   25.2
 122   23:30   33.8    82    0.6   153      2.7   787.9    0.00       0    999.0   25.1
 122   23:40   33.8    82    0.6   257      2.7   788.0    0.00       0    999.0   25.0
 122   23:50   33.9    81    0.7   333      5.0   788.1    0.00       0    999.0   25.2
 123    0:00   33.3    83    0.1   146      1.5   788.2    0.00       0    999.0   25.1
 123    0:10   32.9    85    0.2   116      2.5   788.2    0.00       0    999.0   24.8
 123    0:20   33.3    84    0.2   196      3.7   788.2    0.00       0    999.0   25.2
 123    0:30   33.7    82    0.2    62      2.3   788.1    0.00       0    999.0   24.8
 123    0:40   33.3    83    0.1   293      1.5   788.2    0.00       0    999.0   24.9
 123    0:50   33.0    84    0.2   209      1.7   788.1    0.00       0    999.0   24.8
 123    1:00   33.1    83    0.4   160      3.1   788.1    0.00       0    999.0   25.1
 123    1:10   34.2    81    0.8   163      4.1   788.1    0.00       0    999.0   25.2
 123    1:20   34.1    81    0.1   206      1.9   788.0    0.00       0    999.0   25.0
 123    1:30   34.2    80    0.3   157      2.5   788.0    0.00       0    999.0   25.2
 123    1:40   34.1    80    0.2   334      1.8   788.0    0.00       0    999.0   24.8
 123    1:50   33.1    82    0.2   263      1.8   788.1    0.00       0    999.0   24.4
 123    2:00   32.5    83    0.2   238      2.6   788.1    0.00       0    999.0   25.0
 123    2:10   31.9    85    0.6    94      3.6   788.1    0.00       0    999.0   24.9
 123    2:20   31.9    85    0.2    88      2.4   788.1    0.00       0    999.0   25.0
 123    2:30   32.0    85    0.0     0      0.0   788.1    0.00       0    999.0   25.0
 123    2:40   32.5    83    0.0   295      0.3   788.2    0.00       0    999.0   25.1
 123    2:50   32.2    83    0.1   244      1.2   788.2    0.00       0    999.0   24.9
 123    3:00   31.9    84    0.0   221      1.2   788.2    0.00       0    999.0   25.1
 123    3:10   31.8    84    0.0   130      0.4   788.2    0.00       0    999.0   25.2
 123    3:20   32.6    82    0.4    94      1.9   788.3    0.00       0    999.0   25.1
 123    3:30   32.4    82    0.2    91      2.0   788.3    0.00       0    999.0   25.0
 123    3:40   32.0    84    0.0   147      1.0   788.3    0.00       0    999.0   24.7
 123    3:50   31.9    85    0.1   174      2.0   788.2    0.00       0    999.0   25.1
 123    4:00   32.4    83    0.0   202      0.7   788.2    0.00       0    999.0   24.2
 123    4:10   32.0    83    0.0     0      0.0   788.2    0.00       0    999.0   24.3
 123    4:20   31.5    85    0.0     0      0.0   788.3    0.00       0    999.0   25.2
 123    4:30   31.2    85    0.0     0      0.0   788.3    0.00       0    999.0   24.6
 123    4:40   31.0    86    0.0     0      0.0   788.3    0.00       0    999.0   24.8

Return to Sugar Bowl graphs page.


Western Regional Climate Center,wrcc@dri.edu